sensor_id;sensor_type;location;lat;lon;timestamp;P1;durP1;ratioP1;P2;durP2;ratioP2
7517;SDS011;3800;48.922;9.444;2022-10-16T00:01:42;3.87;;;1.80;;
7517;SDS011;3800;48.922;9.444;2022-10-16T00:04:11;1.60;;;1.50;;
7517;SDS011;3800;48.922;9.444;2022-10-16T00:06:38;3.73;;;1.80;;
7517;SDS011;3800;48.922;9.444;2022-10-16T00:09:06;3.23;;;1.80;;
7517;SDS011;3800;48.922;9.444;2022-10-16T00:11:35;4.17;;;2.03;;
7517;SDS011;3800;48.922;9.444;2022-10-16T00:14:02;3.27;;;1.90;;
7517;SDS011;3800;48.922;9.444;2022-10-16T00:16:29;2.27;;;1.90;;
7517;SDS011;3800;48.922;9.444;2022-10-16T00:18:57;2.43;;;1.90;;
7517;SDS011;3800;48.922;9.444;2022-10-16T00:21:26;3.47;;;2.20;;
7517;SDS011;3800;48.922;9.444;2022-10-16T00:23:54;4.90;;;2.33;;
7517;SDS011;3800;48.922;9.444;2022-10-16T00:26:22;3.63;;;2.00;;
7517;SDS011;3800;48.922;9.444;2022-10-16T00:28:50;2.67;;;1.97;;
7517;SDS011;3800;48.922;9.444;2022-10-16T00:31:18;2.47;;;1.77;;
7517;SDS011;3800;48.922;9.444;2022-10-16T00:33:45;2.30;;;1.80;;
7517;SDS011;3800;48.922;9.444;2022-10-16T00:36:14;2.43;;;1.90;;
7517;SDS011;3800;48.922;9.444;2022-10-16T00:38:41;3.53;;;1.83;;
7517;SDS011;3800;48.922;9.444;2022-10-16T00:41:10;2.10;;;1.70;;
7517;SDS011;3800;48.922;9.444;2022-10-16T00:46:23;2.10;;;1.73;;
7517;SDS011;3800;48.922;9.444;2022-10-16T00:48:52;1.97;;;1.70;;
7517;SDS011;3800;48.922;9.444;2022-10-16T00:51:21;2.13;;;1.70;;
7517;SDS011;3800;48.922;9.444;2022-10-16T00:53:48;3.33;;;1.83;;
7517;SDS011;3800;48.922;9.444;2022-10-16T00:56:15;2.50;;;1.60;;
7517;SDS011;3800;48.922;9.444;2022-10-16T00:58:44;1.70;;;1.50;;
7517;SDS011;3800;48.922;9.444;2022-10-16T01:01:11;3.43;;;1.70;;
7517;SDS011;3800;48.922;9.444;2022-10-16T01:03:40;2.57;;;1.90;;
7517;SDS011;3800;48.922;9.444;2022-10-16T01:06:48;2.20;;;1.80;;
7517;SDS011;3800;48.922;9.444;2022-10-16T01:09:02;3.30;;;2.03;;
7517;SDS011;3800;48.922;9.444;2022-10-16T01:11:33;5.20;;;1.93;;
7517;SDS011;3800;48.922;9.444;2022-10-16T01:14:04;2.13;;;1.83;;
7517;SDS011;3800;48.922;9.444;2022-10-16T01:16:33;1.93;;;1.53;;
7517;SDS011;3800;48.922;9.444;2022-10-16T01:19:06;4.03;;;1.90;;
7517;SDS011;3800;48.922;9.444;2022-10-16T01:21:33;2.47;;;1.60;;
7517;SDS011;3800;48.922;9.444;2022-10-16T01:27:01;3.90;;;1.93;;
7517;SDS011;3800;48.922;9.444;2022-10-16T01:29:29;2.20;;;1.60;;
7517;SDS011;3800;48.922;9.444;2022-10-16T01:31:59;3.53;;;2.03;;
7517;SDS011;3800;48.922;9.444;2022-10-16T01:34:27;2.00;;;1.80;;
7517;SDS011;3800;48.922;9.444;2022-10-16T01:36:55;4.13;;;1.70;;
7517;SDS011;3800;48.922;9.444;2022-10-16T01:39:22;1.60;;;1.40;;
7517;SDS011;3800;48.922;9.444;2022-10-16T01:41:52;2.63;;;1.80;;
7517;SDS011;3800;48.922;9.444;2022-10-16T01:44:19;2.27;;;1.97;;
7517;SDS011;3800;48.922;9.444;2022-10-16T01:46:48;3.77;;;1.70;;
7517;SDS011;3800;48.922;9.444;2022-10-16T01:49:15;2.13;;;1.70;;
7517;SDS011;3800;48.922;9.444;2022-10-16T01:51:43;3.17;;;1.70;;
7517;SDS011;3800;48.922;9.444;2022-10-16T01:54:11;3.70;;;1.70;;
7517;SDS011;3800;48.922;9.444;2022-10-16T01:56:38;3.77;;;1.80;;
7517;SDS011;3800;48.922;9.444;2022-10-16T01:59:09;7.17;;;1.93;;
7517;SDS011;3800;48.922;9.444;2022-10-16T02:01:38;3.97;;;1.70;;
7517;SDS011;3800;48.922;9.444;2022-10-16T02:04:12;4.33;;;1.70;;
7517;SDS011;3800;48.922;9.444;2022-10-16T02:06:39;3.47;;;1.77;;
7517;SDS011;3800;48.922;9.444;2022-10-16T02:09:06;1.60;;;1.50;;
7517;SDS011;3800;48.922;9.444;2022-10-16T02:11:34;2.57;;;1.50;;
7517;SDS011;3800;48.922;9.444;2022-10-16T02:14:03;2.10;;;1.60;;
7517;SDS011;3800;48.922;9.444;2022-10-16T02:16:33;2.97;;;1.70;;
7517;SDS011;3800;48.922;9.444;2022-10-16T02:19:01;2.50;;;1.87;;
7517;SDS011;3800;48.922;9.444;2022-10-16T02:21:29;1.63;;;1.50;;
7517;SDS011;3800;48.922;9.444;2022-10-16T02:24:00;3.07;;;1.87;;
7517;SDS011;3800;48.922;9.444;2022-10-16T02:26:31;2.03;;;1.70;;
7517;SDS011;3800;48.922;9.444;2022-10-16T02:29:00;4.00;;;1.70;;
7517;SDS011;3800;48.922;9.444;2022-10-16T02:31:28;3.60;;;1.63;;
7517;SDS011;3800;48.922;9.444;2022-10-16T02:33:56;4.50;;;1.50;;
7517;SDS011;3800;48.922;9.444;2022-10-16T02:36:23;1.47;;;1.30;;
7517;SDS011;3800;48.922;9.444;2022-10-16T02:38:52;1.80;;;1.50;;
7517;SDS011;3800;48.922;9.444;2022-10-16T02:41:20;3.70;;;1.47;;
7517;SDS011;3800;48.922;9.444;2022-10-16T02:43:47;2.20;;;1.50;;
7517;SDS011;3800;48.922;9.444;2022-10-16T02:46:15;2.53;;;1.60;;
7517;SDS011;3800;48.922;9.444;2022-10-16T02:48:42;3.13;;;1.40;;
7517;SDS011;3800;48.922;9.444;2022-10-16T02:51:10;2.73;;;1.53;;
7517;SDS011;3800;48.922;9.444;2022-10-16T02:53:38;2.80;;;1.60;;
7517;SDS011;3800;48.922;9.444;2022-10-16T02:56:06;2.77;;;1.90;;
7517;SDS011;3800;48.922;9.444;2022-10-16T02:58:33;2.20;;;1.57;;
7517;SDS011;3800;48.922;9.444;2022-10-16T03:01:01;3.93;;;1.30;;
7517;SDS011;3800;48.922;9.444;2022-10-16T03:03:29;1.40;;;1.20;;
7517;SDS011;3800;48.922;9.444;2022-10-16T03:05:57;2.93;;;1.40;;
7517;SDS011;3800;48.922;9.444;2022-10-16T03:08:25;3.07;;;1.60;;
7517;SDS011;3800;48.922;9.444;2022-10-16T03:10:52;3.07;;;1.53;;
7517;SDS011;3800;48.922;9.444;2022-10-16T03:13:20;3.07;;;1.70;;
7517;SDS011;3800;48.922;9.444;2022-10-16T03:15:48;5.63;;;1.70;;
7517;SDS011;3800;48.922;9.444;2022-10-16T03:18:15;3.43;;;1.80;;
7517;SDS011;3800;48.922;9.444;2022-10-16T03:20:43;2.27;;;1.50;;
7517;SDS011;3800;48.922;9.444;2022-10-16T03:23:11;5.50;;;1.70;;
7517;SDS011;3800;48.922;9.444;2022-10-16T03:25:38;2.27;;;1.50;;
7517;SDS011;3800;48.922;9.444;2022-10-16T03:28:06;2.23;;;1.60;;
7517;SDS011;3800;48.922;9.444;2022-10-16T03:30:34;1.70;;;1.60;;
7517;SDS011;3800;48.922;9.444;2022-10-16T03:33:02;2.63;;;1.50;;
7517;SDS011;3800;48.922;9.444;2022-10-16T03:35:30;2.73;;;1.40;;
7517;SDS011;3800;48.922;9.444;2022-10-16T03:37:57;1.83;;;1.30;;
7517;SDS011;3800;48.922;9.444;2022-10-16T03:40:25;2.47;;;1.50;;
7517;SDS011;3800;48.922;9.444;2022-10-16T03:42:53;3.97;;;1.30;;
7517;SDS011;3800;48.922;9.444;2022-10-16T03:45:20;2.50;;;1.50;;
7517;SDS011;3800;48.922;9.444;2022-10-16T03:47:51;3.53;;;1.30;;
7517;SDS011;3800;48.922;9.444;2022-10-16T03:50:18;2.43;;;1.63;;
7517;SDS011;3800;48.922;9.444;2022-10-16T03:52:46;1.97;;;1.33;;
7517;SDS011;3800;48.922;9.444;2022-10-16T03:55:13;1.97;;;1.20;;
7517;SDS011;3800;48.922;9.444;2022-10-16T03:57:43;1.53;;;1.30;;
7517;SDS011;3800;48.922;9.444;2022-10-16T04:00:11;2.30;;;1.40;;
7517;SDS011;3800;48.922;9.444;2022-10-16T04:02:39;2.90;;;1.40;;
7517;SDS011;3800;48.922;9.444;2022-10-16T04:05:07;2.33;;;1.37;;
7517;SDS011;3800;48.922;9.444;2022-10-16T04:07:34;2.53;;;1.30;;
7517;SDS011;3800;48.922;9.444;2022-10-16T04:10:02;2.47;;;1.30;;
7517;SDS011;3800;48.922;9.444;2022-10-16T04:12:29;2.27;;;1.27;;
7517;SDS011;3800;48.922;9.444;2022-10-16T04:14:57;2.73;;;1.60;;
7517;SDS011;3800;48.922;9.444;2022-10-16T04:17:25;2.47;;;1.80;;
7517;SDS011;3800;48.922;9.444;2022-10-16T04:19:52;2.73;;;2.37;;
7517;SDS011;3800;48.922;9.444;2022-10-16T04:22:20;2.73;;;2.00;;
7517;SDS011;3800;48.922;9.444;2022-10-16T04:24:48;2.40;;;2.20;;
7517;SDS011;3800;48.922;9.444;2022-10-16T04:27:15;2.73;;;2.17;;
7517;SDS011;3800;48.922;9.444;2022-10-16T04:29:43;4.33;;;2.20;;
7517;SDS011;3800;48.922;9.444;2022-10-16T04:32:11;7.53;;;2.27;;
7517;SDS011;3800;48.922;9.444;2022-10-16T04:34:39;3.80;;;2.27;;
7517;SDS011;3800;48.922;9.444;2022-10-16T04:37:07;2.00;;;1.80;;
7517;SDS011;3800;48.922;9.444;2022-10-16T04:39:35;6.00;;;2.10;;
7517;SDS011;3800;48.922;9.444;2022-10-16T04:42:02;3.10;;;2.20;;
7517;SDS011;3800;48.922;9.444;2022-10-16T04:44:30;3.20;;;2.00;;
7517;SDS011;3800;48.922;9.444;2022-10-16T04:46:58;2.77;;;2.13;;
7517;SDS011;3800;48.922;9.444;2022-10-16T04:49:27;4.03;;;2.27;;
7517;SDS011;3800;48.922;9.444;2022-10-16T04:51:54;4.27;;;1.93;;
7517;SDS011;3800;48.922;9.444;2022-10-16T04:54:23;2.93;;;1.90;;
7517;SDS011;3800;48.922;9.444;2022-10-16T04:56:50;5.23;;;2.00;;
7517;SDS011;3800;48.922;9.444;2022-10-16T04:59:18;3.97;;;2.43;;
7517;SDS011;3800;48.922;9.444;2022-10-16T05:01:46;3.97;;;2.00;;
7517;SDS011;3800;48.922;9.444;2022-10-16T05:04:13;3.17;;;2.67;;
7517;SDS011;3800;48.922;9.444;2022-10-16T05:06:41;3.93;;;2.00;;
7517;SDS011;3800;48.922;9.444;2022-10-16T05:09:10;3.97;;;2.20;;
7517;SDS011;3800;48.922;9.444;2022-10-16T05:11:38;3.17;;;2.17;;
7517;SDS011;3800;48.922;9.444;2022-10-16T05:14:05;2.67;;;2.20;;
7517;SDS011;3800;48.922;9.444;2022-10-16T05:16:33;4.87;;;2.27;;
7517;SDS011;3800;48.922;9.444;2022-10-16T05:19:01;2.70;;;2.00;;
7517;SDS011;3800;48.922;9.444;2022-10-16T05:21:28;2.13;;;1.93;;
7517;SDS011;3800;48.922;9.444;2022-10-16T05:23:56;2.67;;;2.10;;
7517;SDS011;3800;48.922;9.444;2022-10-16T05:26:24;1.97;;;1.87;;
7517;SDS011;3800;48.922;9.444;2022-10-16T05:28:53;4.80;;;2.80;;
7517;SDS011;3800;48.922;9.444;2022-10-16T05:31:22;6.03;;;2.67;;
7517;SDS011;3800;48.922;9.444;2022-10-16T05:33:49;4.27;;;2.20;;
7517;SDS011;3800;48.922;9.444;2022-10-16T05:36:17;3.70;;;2.30;;
7517;SDS011;3800;48.922;9.444;2022-10-16T05:38:45;2.50;;;2.30;;
7517;SDS011;3800;48.922;9.444;2022-10-16T05:41:13;4.30;;;2.60;;
7517;SDS011;3800;48.922;9.444;2022-10-16T05:43:41;5.03;;;2.20;;
7517;SDS011;3800;48.922;9.444;2022-10-16T05:46:08;4.03;;;2.10;;
7517;SDS011;3800;48.922;9.444;2022-10-16T05:48:37;2.50;;;2.30;;
7517;SDS011;3800;48.922;9.444;2022-10-16T05:51:05;4.17;;;2.23;;
7517;SDS011;3800;48.922;9.444;2022-10-16T05:53:33;2.83;;;2.30;;
7517;SDS011;3800;48.922;9.444;2022-10-16T05:56:00;2.30;;;2.10;;
7517;SDS011;3800;48.922;9.444;2022-10-16T05:58:29;6.00;;;2.10;;
7517;SDS011;3800;48.922;9.444;2022-10-16T06:00:57;2.87;;;2.57;;
7517;SDS011;3800;48.922;9.444;2022-10-16T06:03:26;4.90;;;2.10;;
7517;SDS011;3800;48.922;9.444;2022-10-16T06:05:54;2.50;;;2.30;;
7517;SDS011;3800;48.922;9.444;2022-10-16T06:08:22;3.73;;;2.30;;
7517;SDS011;3800;48.922;9.444;2022-10-16T06:10:49;3.77;;;2.10;;
7517;SDS011;3800;48.922;9.444;2022-10-16T06:13:16;4.47;;;2.20;;
7517;SDS011;3800;48.922;9.444;2022-10-16T06:15:45;2.87;;;2.30;;
7517;SDS011;3800;48.922;9.444;2022-10-16T06:18:12;3.10;;;2.80;;
7517;SDS011;3800;48.922;9.444;2022-10-16T06:20:41;3.83;;;3.20;;
7517;SDS011;3800;48.922;9.444;2022-10-16T06:23:09;3.23;;;2.53;;
7517;SDS011;3800;48.922;9.444;2022-10-16T06:25:37;2.63;;;2.40;;
7517;SDS011;3800;48.922;9.444;2022-10-16T06:28:05;2.63;;;2.33;;
7517;SDS011;3800;48.922;9.444;2022-10-16T06:30:33;3.03;;;2.17;;
7517;SDS011;3800;48.922;9.444;2022-10-16T06:33:00;3.70;;;2.20;;
7517;SDS011;3800;48.922;9.444;2022-10-16T06:35:28;5.07;;;2.20;;
7517;SDS011;3800;48.922;9.444;2022-10-16T06:37:55;3.63;;;2.57;;
7517;SDS011;3800;48.922;9.444;2022-10-16T06:40:24;2.50;;;2.30;;
7517;SDS011;3800;48.922;9.444;2022-10-16T06:42:54;5.13;;;2.40;;
7517;SDS011;3800;48.922;9.444;2022-10-16T06:45:22;6.10;;;2.50;;
7517;SDS011;3800;48.922;9.444;2022-10-16T06:47:50;4.03;;;2.30;;
7517;SDS011;3800;48.922;9.444;2022-10-16T06:50:18;2.40;;;2.20;;
7517;SDS011;3800;48.922;9.444;2022-10-16T06:52:46;4.40;;;2.40;;
7517;SDS011;3800;48.922;9.444;2022-10-16T06:55:13;3.10;;;2.20;;
7517;SDS011;3800;48.922;9.444;2022-10-16T06:57:42;2.90;;;2.50;;
7517;SDS011;3800;48.922;9.444;2022-10-16T07:00:10;3.00;;;2.47;;
7517;SDS011;3800;48.922;9.444;2022-10-16T07:02:37;5.90;;;2.40;;
7517;SDS011;3800;48.922;9.444;2022-10-16T07:05:05;6.13;;;2.63;;
7517;SDS011;3800;48.922;9.444;2022-10-16T07:07:34;6.97;;;2.43;;
7517;SDS011;3800;48.922;9.444;2022-10-16T07:10:02;3.40;;;2.10;;
7517;SDS011;3800;48.922;9.444;2022-10-16T07:12:30;4.37;;;2.27;;
7517;SDS011;3800;48.922;9.444;2022-10-16T07:14:58;4.43;;;3.30;;
7517;SDS011;3800;48.922;9.444;2022-10-16T07:17:25;3.63;;;3.30;;
7517;SDS011;3800;48.922;9.444;2022-10-16T07:19:53;4.07;;;3.67;;
7517;SDS011;3800;48.922;9.444;2022-10-16T07:22:21;5.17;;;2.87;;
7517;SDS011;3800;48.922;9.444;2022-10-16T07:24:48;3.13;;;2.67;;
7517;SDS011;3800;48.922;9.444;2022-10-16T07:27:17;6.13;;;2.53;;
7517;SDS011;3800;48.922;9.444;2022-10-16T07:29:45;2.97;;;2.60;;
7517;SDS011;3800;48.922;9.444;2022-10-16T07:32:13;2.93;;;2.53;;
7517;SDS011;3800;48.922;9.444;2022-10-16T07:34:41;3.30;;;2.67;;
7517;SDS011;3800;48.922;9.444;2022-10-16T07:37:09;2.43;;;2.23;;
7517;SDS011;3800;48.922;9.444;2022-10-16T07:39:36;2.23;;;2.00;;
7517;SDS011;3800;48.922;9.444;2022-10-16T07:42:04;5.43;;;2.47;;
7517;SDS011;3800;48.922;9.444;2022-10-16T07:44:32;3.37;;;2.37;;
7517;SDS011;3800;48.922;9.444;2022-10-16T07:47:00;4.30;;;2.37;;
7517;SDS011;3800;48.922;9.444;2022-10-16T07:49:27;3.23;;;2.83;;
7517;SDS011;3800;48.922;9.444;2022-10-16T07:51:55;7.17;;;5.67;;
7517;SDS011;3800;48.922;9.444;2022-10-16T07:54:23;7.27;;;5.67;;
7517;SDS011;3800;48.922;9.444;2022-10-16T07:56:50;8.73;;;7.17;;
7517;SDS011;3800;48.922;9.444;2022-10-16T07:59:18;9.17;;;6.80;;
7517;SDS011;3800;48.922;9.444;2022-10-16T08:01:46;11.33;;;6.77;;
7517;SDS011;3800;48.922;9.444;2022-10-16T08:04:13;7.67;;;6.23;;
7517;SDS011;3800;48.922;9.444;2022-10-16T08:06:42;8.17;;;6.23;;
7517;SDS011;3800;48.922;9.444;2022-10-16T08:09:09;6.37;;;4.10;;
7517;SDS011;3800;48.922;9.444;2022-10-16T08:11:37;6.40;;;3.50;;
7517;SDS011;3800;48.922;9.444;2022-10-16T08:14:05;4.20;;;3.07;;
7517;SDS011;3800;48.922;9.444;2022-10-16T08:16:33;3.57;;;2.90;;
7517;SDS011;3800;48.922;9.444;2022-10-16T08:19:00;4.30;;;2.70;;
7517;SDS011;3800;48.922;9.444;2022-10-16T08:21:29;3.83;;;2.50;;
7517;SDS011;3800;48.922;9.444;2022-10-16T08:23:57;5.43;;;2.77;;
7517;SDS011;3800;48.922;9.444;2022-10-16T08:26:27;4.70;;;2.70;;
7517;SDS011;3800;48.922;9.444;2022-10-16T08:28:55;4.00;;;2.60;;
7517;SDS011;3800;48.922;9.444;2022-10-16T08:31:23;5.33;;;2.97;;
7517;SDS011;3800;48.922;9.444;2022-10-16T08:33:51;2.73;;;2.50;;
7517;SDS011;3800;48.922;9.444;2022-10-16T08:36:18;4.60;;;2.97;;
7517;SDS011;3800;48.922;9.444;2022-10-16T08:38:49;5.17;;;2.63;;
7517;SDS011;3800;48.922;9.444;2022-10-16T08:41:23;3.83;;;2.30;;
7517;SDS011;3800;48.922;9.444;2022-10-16T08:47:18;3.07;;;2.77;;
7517;SDS011;3800;48.922;9.444;2022-10-16T08:49:55;5.60;;;2.40;;
7517;SDS011;3800;48.922;9.444;2022-10-16T08:52:12;3.67;;;2.30;;
7517;SDS011;3800;48.922;9.444;2022-10-16T08:54:42;3.73;;;2.07;;
7517;SDS011;3800;48.922;9.444;2022-10-16T08:57:17;4.47;;;2.20;;
7517;SDS011;3800;48.922;9.444;2022-10-16T08:59:46;3.40;;;2.10;;
7517;SDS011;3800;48.922;9.444;2022-10-16T09:02:32;4.87;;;2.30;;
7517;SDS011;3800;48.922;9.444;2022-10-16T09:05:02;4.03;;;2.00;;
7517;SDS011;3800;48.922;9.444;2022-10-16T09:07:32;2.90;;;2.10;;
7517;SDS011;3800;48.922;9.444;2022-10-16T09:10:18;2.60;;;2.17;;
7517;SDS011;3800;48.922;9.444;2022-10-16T09:13:09;5.40;;;1.80;;
7517;SDS011;3800;48.922;9.444;2022-10-16T09:15:43;2.13;;;1.90;;
7517;SDS011;3800;48.922;9.444;2022-10-16T09:18:29;4.23;;;1.80;;
7517;SDS011;3800;48.922;9.444;2022-10-16T09:20:59;5.27;;;1.97;;
7517;SDS011;3800;48.922;9.444;2022-10-16T09:23:38;4.90;;;1.60;;
7517;SDS011;3800;48.922;9.444;2022-10-16T09:26:09;2.63;;;1.67;;
7517;SDS011;3800;48.922;9.444;2022-10-16T09:28:34;1.47;;;1.37;;
7517;SDS011;3800;48.922;9.444;2022-10-16T09:31:01;3.30;;;1.60;;
7517;SDS011;3800;48.922;9.444;2022-10-16T09:33:30;1.70;;;1.60;;
7517;SDS011;3800;48.922;9.444;2022-10-16T09:35:57;1.80;;;1.30;;
7517;SDS011;3800;48.922;9.444;2022-10-16T09:38:27;3.30;;;1.87;;
7517;SDS011;3800;48.922;9.444;2022-10-16T09:40:56;3.13;;;1.47;;
7517;SDS011;3800;48.922;9.444;2022-10-16T09:43:26;2.47;;;1.50;;
7517;SDS011;3800;48.922;9.444;2022-10-16T09:45:55;2.40;;;1.60;;
7517;SDS011;3800;48.922;9.444;2022-10-16T09:48:25;2.23;;;1.70;;
7517;SDS011;3800;48.922;9.444;2022-10-16T09:50:57;3.53;;;1.60;;
7517;SDS011;3800;48.922;9.444;2022-10-16T09:53:25;1.80;;;1.33;;
7517;SDS011;3800;48.922;9.444;2022-10-16T09:55:53;5.93;;;1.60;;
7517;SDS011;3800;48.922;9.444;2022-10-16T09:58:21;1.80;;;1.70;;
7517;SDS011;3800;48.922;9.444;2022-10-16T10:00:49;2.83;;;1.50;;
7517;SDS011;3800;48.922;9.444;2022-10-16T10:05:51;2.77;;;1.60;;
7517;SDS011;3800;48.922;9.444;2022-10-16T10:08:18;2.30;;;1.80;;
7517;SDS011;3800;48.922;9.444;2022-10-16T10:10:47;2.20;;;1.70;;
7517;SDS011;3800;48.922;9.444;2022-10-16T10:13:17;5.37;;;3.07;;
7517;SDS011;3800;48.922;9.444;2022-10-16T10:15:51;2.10;;;1.90;;
7517;SDS011;3800;48.922;9.444;2022-10-16T10:18:19;2.10;;;1.50;;
7517;SDS011;3800;48.922;9.444;2022-10-16T10:23:24;4.30;;;1.83;;
7517;SDS011;3800;48.922;9.444;2022-10-16T10:25:58;5.10;;;1.60;;
7517;SDS011;3800;48.922;9.444;2022-10-16T10:28:28;1.43;;;1.33;;
7517;SDS011;3800;48.922;9.444;2022-10-16T10:31:14;2.93;;;1.50;;
7517;SDS011;3800;48.922;9.444;2022-10-16T10:33:48;2.43;;;1.53;;
7517;SDS011;3800;48.922;9.444;2022-10-16T10:36:28;1.77;;;1.30;;
7517;SDS011;3800;48.922;9.444;2022-10-16T10:38:58;4.50;;;1.37;;
7517;SDS011;3800;48.922;9.444;2022-10-16T10:41:53;1.60;;;1.37;;
7517;SDS011;3800;48.922;9.444;2022-10-16T10:44:39;3.43;;;1.50;;
7517;SDS011;3800;48.922;9.444;2022-10-16T10:52:49;2.63;;;1.47;;
7517;SDS011;3800;48.922;9.444;2022-10-16T10:55:20;1.60;;;1.30;;
7517;SDS011;3800;48.922;9.444;2022-10-16T11:01:16;1.73;;;1.43;;
7517;SDS011;3800;48.922;9.444;2022-10-16T11:03:57;3.80;;;1.67;;
7517;SDS011;3800;48.922;9.444;2022-10-16T11:06:55;2.13;;;1.40;;
7517;SDS011;3800;48.922;9.444;2022-10-16T11:09:24;2.07;;;1.50;;
7517;SDS011;3800;48.922;9.444;2022-10-16T11:11:54;1.73;;;1.60;;
7517;SDS011;3800;48.922;9.444;2022-10-16T11:14:26;4.17;;;1.67;;
7517;SDS011;3800;48.922;9.444;2022-10-16T11:16:57;1.80;;;1.47;;
7517;SDS011;3800;48.922;9.444;2022-10-16T11:19:48;3.70;;;1.57;;
7517;SDS011;3800;48.922;9.444;2022-10-16T11:22:23;1.77;;;1.37;;
7517;SDS011;3800;48.922;9.444;2022-10-16T11:24:55;2.13;;;1.40;;
7517;SDS011;3800;48.922;9.444;2022-10-16T11:27:50;3.20;;;1.60;;
7517;SDS011;3800;48.922;9.444;2022-10-16T11:30:24;4.43;;;1.50;;
7517;SDS011;3800;48.922;9.444;2022-10-16T11:34:01;2.77;;;1.40;;
7517;SDS011;3800;48.922;9.444;2022-10-16T11:35:39;2.50;;;1.70;;
7517;SDS011;3800;48.922;9.444;2022-10-16T11:38:10;1.70;;;1.40;;
7517;SDS011;3800;48.922;9.444;2022-10-16T11:40:36;2.57;;;1.30;;
7517;SDS011;3800;48.922;9.444;2022-10-16T11:43:07;1.50;;;1.40;;
7517;SDS011;3800;48.922;9.444;2022-10-16T11:45:49;2.13;;;1.43;;
7517;SDS011;3800;48.922;9.444;2022-10-16T11:48:21;4.43;;;1.70;;
7517;SDS011;3800;48.922;9.444;2022-10-16T11:51:02;2.57;;;1.70;;
7517;SDS011;3800;48.922;9.444;2022-10-16T11:53:34;1.93;;;1.43;;
7517;SDS011;3800;48.922;9.444;2022-10-16T11:56:03;1.60;;;1.40;;
7517;SDS011;3800;48.922;9.444;2022-10-16T11:58:32;2.23;;;1.30;;
7517;SDS011;3800;48.922;9.444;2022-10-16T12:01:11;3.23;;;1.47;;
7517;SDS011;3800;48.922;9.444;2022-10-16T12:03:47;3.87;;;1.50;;
7517;SDS011;3800;48.922;9.444;2022-10-16T12:06:23;3.00;;;1.53;;
7517;SDS011;3800;48.922;9.444;2022-10-16T12:08:54;4.80;;;1.57;;
7517;SDS011;3800;48.922;9.444;2022-10-16T12:11:23;1.83;;;1.30;;
7517;SDS011;3800;48.922;9.444;2022-10-16T12:14:06;2.13;;;1.50;;
7517;SDS011;3800;48.922;9.444;2022-10-16T12:19:24;1.67;;;1.43;;
7517;SDS011;3800;48.922;9.444;2022-10-16T12:21:51;4.13;;;1.30;;
7517;SDS011;3800;48.922;9.444;2022-10-16T12:24:26;2.97;;;1.37;;
7517;SDS011;3800;48.922;9.444;2022-10-16T12:26:49;1.50;;;1.37;;
7517;SDS011;3800;48.922;9.444;2022-10-16T12:29:23;3.33;;;1.57;;
7517;SDS011;3800;48.922;9.444;2022-10-16T12:31:59;1.97;;;1.47;;
7517;SDS011;3800;48.922;9.444;2022-10-16T12:34:31;3.50;;;1.53;;
7517;SDS011;3800;48.922;9.444;2022-10-16T12:37:06;2.80;;;1.40;;
7517;SDS011;3800;48.922;9.444;2022-10-16T12:39:27;1.50;;;1.30;;
7517;SDS011;3800;48.922;9.444;2022-10-16T12:42:00;1.97;;;1.30;;
7517;SDS011;3800;48.922;9.444;2022-10-16T12:44:31;1.90;;;1.30;;
7517;SDS011;3800;48.922;9.444;2022-10-16T12:46:55;2.20;;;1.33;;
7517;SDS011;3800;48.922;9.444;2022-10-16T12:49:31;1.87;;;1.33;;
7517;SDS011;3800;48.922;9.444;2022-10-16T12:52:00;1.70;;;1.40;;
7517;SDS011;3800;48.922;9.444;2022-10-16T12:54:31;1.60;;;1.50;;
7517;SDS011;3800;48.922;9.444;2022-10-16T12:59:39;1.40;;;1.30;;
7517;SDS011;3800;48.922;9.444;2022-10-16T13:04:54;2.03;;;1.40;;
7517;SDS011;3800;48.922;9.444;2022-10-16T13:07:44;1.47;;;1.23;;
7517;SDS011;3800;48.922;9.444;2022-10-16T13:10:20;3.10;;;1.50;;
7517;SDS011;3800;48.922;9.444;2022-10-16T13:13:23;2.23;;;1.40;;
7517;SDS011;3800;48.922;9.444;2022-10-16T13:16:15;1.70;;;1.57;;
7517;SDS011;3800;48.922;9.444;2022-10-16T13:18:49;2.47;;;1.60;;
7517;SDS011;3800;48.922;9.444;2022-10-16T13:21:19;3.37;;;1.47;;
7517;SDS011;3800;48.922;9.444;2022-10-16T13:23:56;2.03;;;1.37;;
7517;SDS011;3800;48.922;9.444;2022-10-16T13:26:44;3.90;;;1.70;;
7517;SDS011;3800;48.922;9.444;2022-10-16T13:29:09;2.00;;;1.20;;
7517;SDS011;3800;48.922;9.444;2022-10-16T13:31:38;3.10;;;1.30;;
7517;SDS011;3800;48.922;9.444;2022-10-16T13:34:10;1.50;;;1.40;;
7517;SDS011;3800;48.922;9.444;2022-10-16T13:36:35;1.77;;;1.53;;
7517;SDS011;3800;48.922;9.444;2022-10-16T13:41:37;5.87;;;1.53;;
7517;SDS011;3800;48.922;9.444;2022-10-16T13:44:04;2.63;;;1.57;;
7517;SDS011;3800;48.922;9.444;2022-10-16T13:46:33;2.23;;;1.40;;
7517;SDS011;3800;48.922;9.444;2022-10-16T13:49:02;1.60;;;1.40;;
7517;SDS011;3800;48.922;9.444;2022-10-16T13:51:31;3.90;;;1.40;;
7517;SDS011;3800;48.922;9.444;2022-10-16T13:53:59;1.47;;;1.37;;
7517;SDS011;3800;48.922;9.444;2022-10-16T13:56:29;2.37;;;1.40;;
7517;SDS011;3800;48.922;9.444;2022-10-16T13:59:01;5.60;;;1.70;;
7517;SDS011;3800;48.922;9.444;2022-10-16T14:01:33;2.03;;;1.43;;
7517;SDS011;3800;48.922;9.444;2022-10-16T14:04:03;2.57;;;1.80;;
7517;SDS011;3800;48.922;9.444;2022-10-16T14:06:32;1.77;;;1.40;;
7517;SDS011;3800;48.922;9.444;2022-10-16T14:09:02;2.30;;;1.67;;
7517;SDS011;3800;48.922;9.444;2022-10-16T14:11:28;3.73;;;1.77;;
7517;SDS011;3800;48.922;9.444;2022-10-16T14:13:56;2.27;;;1.43;;
7517;SDS011;3800;48.922;9.444;2022-10-16T14:16:25;2.83;;;1.60;;
7517;SDS011;3800;48.922;9.444;2022-10-16T14:18:55;2.70;;;1.53;;
7517;SDS011;3800;48.922;9.444;2022-10-16T14:21:24;3.27;;;1.70;;
7517;SDS011;3800;48.922;9.444;2022-10-16T14:23:51;3.80;;;1.60;;
7517;SDS011;3800;48.922;9.444;2022-10-16T14:26:20;3.93;;;1.50;;
7517;SDS011;3800;48.922;9.444;2022-10-16T14:28:47;2.47;;;1.47;;
7517;SDS011;3800;48.922;9.444;2022-10-16T14:31:33;2.03;;;1.60;;
7517;SDS011;3800;48.922;9.444;2022-10-16T14:33:59;4.20;;;1.60;;
7517;SDS011;3800;48.922;9.444;2022-10-16T14:36:27;2.00;;;1.43;;
7517;SDS011;3800;48.922;9.444;2022-10-16T14:39:00;2.80;;;1.63;;
7517;SDS011;3800;48.922;9.444;2022-10-16T14:41:30;2.13;;;1.50;;
7517;SDS011;3800;48.922;9.444;2022-10-16T14:44:02;2.50;;;1.50;;
7517;SDS011;3800;48.922;9.444;2022-10-16T14:46:31;3.10;;;1.57;;
7517;SDS011;3800;48.922;9.444;2022-10-16T14:49:00;2.53;;;1.50;;
7517;SDS011;3800;48.922;9.444;2022-10-16T14:51:27;2.20;;;1.50;;
7517;SDS011;3800;48.922;9.444;2022-10-16T14:53:55;3.17;;;1.60;;
7517;SDS011;3800;48.922;9.444;2022-10-16T14:56:23;3.73;;;1.77;;
7517;SDS011;3800;48.922;9.444;2022-10-16T14:58:50;2.43;;;1.73;;
7517;SDS011;3800;48.922;9.444;2022-10-16T15:01:18;1.67;;;1.50;;
7517;SDS011;3800;48.922;9.444;2022-10-16T15:03:45;2.57;;;1.80;;
7517;SDS011;3800;48.922;9.444;2022-10-16T15:06:14;2.00;;;1.53;;
7517;SDS011;3800;48.922;9.444;2022-10-16T15:08:41;2.03;;;1.50;;
7517;SDS011;3800;48.922;9.444;2022-10-16T15:11:10;1.70;;;1.57;;
7517;SDS011;3800;48.922;9.444;2022-10-16T15:13:38;2.43;;;1.60;;
7517;SDS011;3800;48.922;9.444;2022-10-16T15:16:08;3.97;;;1.80;;
7517;SDS011;3800;48.922;9.444;2022-10-16T15:18:35;1.77;;;1.67;;
7517;SDS011;3800;48.922;9.444;2022-10-16T15:21:03;6.33;;;1.90;;
7517;SDS011;3800;48.922;9.444;2022-10-16T15:23:31;3.03;;;1.60;;
7517;SDS011;3800;48.922;9.444;2022-10-16T15:25:59;3.10;;;1.70;;
7517;SDS011;3800;48.922;9.444;2022-10-16T15:28:26;3.90;;;1.77;;
7517;SDS011;3800;48.922;9.444;2022-10-16T15:30:55;3.20;;;1.47;;
7517;SDS011;3800;48.922;9.444;2022-10-16T15:33:23;4.63;;;1.67;;
7517;SDS011;3800;48.922;9.444;2022-10-16T15:35:50;2.00;;;1.80;;
7517;SDS011;3800;48.922;9.444;2022-10-16T15:38:19;3.60;;;1.80;;
7517;SDS011;3800;48.922;9.444;2022-10-16T15:40:46;3.27;;;1.80;;
7517;SDS011;3800;48.922;9.444;2022-10-16T15:43:13;3.17;;;1.70;;
7517;SDS011;3800;48.922;9.444;2022-10-16T15:45:40;1.67;;;1.50;;
7517;SDS011;3800;48.922;9.444;2022-10-16T15:48:11;4.23;;;1.60;;
7517;SDS011;3800;48.922;9.444;2022-10-16T15:50:38;2.17;;;1.60;;
7517;SDS011;3800;48.922;9.444;2022-10-16T15:53:06;2.00;;;1.70;;
7517;SDS011;3800;48.922;9.444;2022-10-16T15:55:34;2.23;;;1.70;;
7517;SDS011;3800;48.922;9.444;2022-10-16T15:58:01;2.03;;;1.80;;
7517;SDS011;3800;48.922;9.444;2022-10-16T16:00:29;4.20;;;1.60;;
7517;SDS011;3800;48.922;9.444;2022-10-16T16:02:57;2.87;;;1.80;;
7517;SDS011;3800;48.922;9.444;2022-10-16T16:05:24;3.37;;;1.87;;